Talking Rock, Georgia
Current Conditions -  °F | °C
As of 1:15 AM on Wednesday 26 Nov 2014 (Local Time) from KCNI Reporting Station
Overcast Overcast  
Wind Chill: 46°   Ceiling: 10000
Heat Index: 46°   Visibility: 10mi
Dew Point: 28°   Wind: 3mph
Humidity: 50%   Direction: 320°NW
Pressure: 29.99"   Gusts: NA
Location:  34.51°N, 84.5°W
Report Text: KCNI 260615Z AUTO 32003KT 10SM OVC100 08/M02 A2999 RMK AO2
Loading
Personal Weather Stations






























Interactive Weather Map New forecast layout! Learn more

10-Day Weather Forecast

Advertisements
Track Severe Weather on mobile